SAARSABE

Guest
Details From SAAR - Rosario (Islas Malvinas)
To SABE - Aeroparque Jorge Newbery
Flight Number -
Tags decoded
Created
Modified
Stats Distance 162 nm / 299 km
Max Altitude 0 ft / 0 m
Waypoints 5
Social Downloads 6
Likes 0
Share VATSIM

Download

Looking for another format? Having issues loading an existing format? Contact us
Advertisement - Login to hide

Notes

Requested: SAAR VASAL W20 MULTA W24 SNT SABE Unmatched points: W20

Route

SAAR VASAL MULTA SNT SABE

ID Type Via Altitude Latitude Longitude Leg Dist Tot Dist Heading (true) Name
O SAAR APT - 0 ft / 0 m -32.90347˚ -60.78463˚ - 0 nm - Rosario (Islas Malvinas)
VASAL FIX - 0 ft / 0 m -33.33750˚ -60.48167˚ 30 nm 30 nm 150° / 150° -
MULTA FIX - 0 ft / 0 m -33.84000˚ -60.12972˚ 34 nm 65 nm 150° / 150° -
SNT NDB - 0 ft / 0 m -34.24778˚ -59.47556˚ 40 nm 105 nm 127° / 127° SAN ANTONIO DE ARECO NDB
O SABE APT - 0 ft / 0 m -34.55941˚ -58.41575˚ 55 nm 161 nm 110° / 109° Aeroparque Jorge Newbery

Altitude Profile

Advertisement - Login to hide

SAAR

Details ICAO SAAR (ROS)
Name Rosario (Islas Malvinas)
Region Argentina
Timezone America/Argentina/Cordoba (UTC-3.0)
Stats Elevation 85 ft / 26 m (AMSL)
Location -32.903472° -60.784635°
Runways 1
Magnetic Variation 7.843° W

METAR

SAAR 182000Z 07012KT CAVOK 24/05 Q1017

Decode

TAF

TAF SAAR 181700Z 1818/1918 07015KT CAVOK TX26/1819Z TN16/1909Z BECMG 1905/1907 05010KT 8000 -TSRA BKN020 FEW040CB BKN050 BECMG 1914/1916 11015G25KT 4000 TSRA OVC015 FEW045CB OVC045

Decode

Departure Runways

ID Width Length Bearing (true) Bearing (mag) Surface Threshold Offset Overrun Length
02 148 ft / 45 m 9,878 ft / 3,011 m 10.78° 18.62° Concrete 0 ft / 0 m 128 ft / 39 m
20 148 ft / 45 m 9,878 ft / 3,011 m 190.78° 198.62° Concrete 0 ft / 0 m 0 ft / 0 m

SABE

Details ICAO SABE (AEP)
Name Aeroparque Jorge Newbery
Region Argentina
Timezone Unknown (UTC+0.0)
Stats Elevation 17 ft / 5 m (AMSL)
Location -34.559414° -58.415749°
Runways 1
Magnetic Variation 8.982° W

METAR

SABE 182000Z 11012KT CAVOK 21/07 Q1019

Decode

TAF

TAF SABE 181700Z 1818/1918 11015KT 9999 FEW035 TX24/1918Z TN17/1909Z BECMG 1905/1907 05020KT 9999 BKN030 BECMG 1914/1916 07010KT

Decode

Destination Runways

ID Width Length Bearing (true) Bearing (mag) Surface Threshold Offset Overrun Length
13 131 ft / 40 m 6,882 ft / 2,098 m 123.87° 132.85° Concrete 0 ft / 0 m 791 ft / 241 m
31 131 ft / 40 m 6,882 ft / 2,098 m 303.86° 312.84° Concrete 991 ft / 302 m 0 ft / 0 m

Approach Navaids

Runway Type Ident Frequency Range Bearing (true) Bearing (mag) Slope Elevation
13 Localiser AE 109.50 MHz 18 nm / 33 km 123.95° 132.94° - 17 ft / 5 m (AMSL)
13 Glidescope AE 109.50 MHz 10 nm / 19 km 124.47° 133.45° 3.00° 17 ft / 5 m (AMSL)
13 DME AE 109.50 MHz 18 nm / 33 km - - - 17 ft / 5 m (AMSL)

Popular Alternatives